createdAt,value
2018-04-10T00:02:00.367Z,99.90
2018-04-10T00:04:28.775Z,99.90
2018-04-10T00:06:57.163Z,99.90
2018-04-10T00:09:25.763Z,99.90
2018-04-10T00:11:54.928Z,99.90
2018-04-10T00:14:23.427Z,99.90
2018-04-10T00:16:51.859Z,99.90
2018-04-10T00:19:24.356Z,99.90
2018-04-10T00:21:52.794Z,99.90
2018-04-10T00:24:21.299Z,99.90
2018-04-10T00:26:50.463Z,99.90
2018-04-10T00:29:18.885Z,99.90
2018-04-10T00:31:48.053Z,99.90
2018-04-10T00:34:16.531Z,99.90
2018-04-10T00:36:45.731Z,99.90
2018-04-10T00:39:14.133Z,99.90
2018-04-10T00:41:48.061Z,99.90
2018-04-10T00:44:17.258Z,99.90
2018-04-10T00:46:46.429Z,99.90
2018-04-10T00:49:14.866Z,99.90
2018-04-10T00:51:43.386Z,99.90
2018-04-10T00:54:11.766Z,99.90
2018-04-10T00:56:40.194Z,99.90
2018-04-10T00:59:09.355Z,99.90
2018-04-10T01:01:37.769Z,99.90
2018-04-10T01:04:10.641Z,99.90
2018-04-10T01:06:39.869Z,99.90
2018-04-10T01:09:08.266Z,99.90
2018-04-10T01:11:37.433Z,99.90
2018-04-10T01:14:06.026Z,99.90
2018-04-10T01:16:34.532Z,99.90
2018-04-10T01:19:03.144Z,99.90
2018-04-10T01:21:32.319Z,99.90
2018-04-10T01:24:00.734Z,99.90
2018-04-10T01:26:30.399Z,99.90
2018-04-10T01:28:58.958Z,99.90
2018-04-10T01:31:27.486Z,99.90
2018-04-10T01:33:56.080Z,99.90
2018-04-10T01:36:24.526Z,99.90
2018-04-10T01:38:53.837Z,99.90
2018-04-10T01:41:22.268Z,99.90
2018-04-10T01:43:50.692Z,99.90
2018-04-10T01:46:20.024Z,99.90
2018-04-10T01:48:51.299Z,99.90
2018-04-10T01:51:19.875Z,99.90
2018-04-10T01:53:48.269Z,99.90
2018-04-10T01:56:16.682Z,99.90
2018-04-10T01:58:45.824Z,99.90
2018-04-10T02:01:14.276Z,99.90
2018-04-10T02:03:42.760Z,99.90
2018-04-10T02:06:11.306Z,99.90
2018-04-10T02:08:39.710Z,99.90
2018-04-10T02:11:12.507Z,99.90
2018-04-10T02:13:41.656Z,99.90
2018-04-10T02:16:10.037Z,99.90
2018-04-10T02:18:38.400Z,99.90
2018-04-10T02:21:06.819Z,99.90
2018-04-10T02:23:35.385Z,99.90
2018-04-10T02:26:03.753Z,99.90
2018-04-10T02:28:32.144Z,99.90
2018-04-10T02:31:00.543Z,99.90
2018-04-10T02:33:33.438Z,99.90
2018-04-10T02:36:01.874Z,99.90
2018-04-10T02:38:30.441Z,99.90
2018-04-10T02:40:59.624Z,99.90
2018-04-10T02:43:28.797Z,99.90
2018-04-10T02:45:57.951Z,99.90
2018-04-10T02:48:26.407Z,99.90
2018-04-10T02:50:54.784Z,99.90
2018-04-10T02:53:23.321Z,99.90
2018-04-10T02:55:58.196Z,99.90
2018-04-10T02:58:30.166Z,99.90
2018-04-10T03:01:00.378Z,99.90
2018-04-10T03:03:29.639Z,99.90
2018-04-10T03:05:58.200Z,99.90
2018-04-10T03:08:26.767Z,99.90
2018-04-10T03:10:55.212Z,99.90
2018-04-10T03:13:24.359Z,99.90
2018-04-10T03:15:52.746Z,99.90
2018-04-10T03:18:21.124Z,99.90
2018-04-10T03:20:50.902Z,99.90
2018-04-10T03:23:19.370Z,99.90
2018-04-10T03:25:59.445Z,99.90
2018-04-10T03:28:28.303Z,99.90
2018-04-10T03:30:56.750Z,99.90
2018-04-10T03:33:25.322Z,99.90
2018-04-10T03:35:53.725Z,99.90
2018-04-10T03:38:22.300Z,99.90
2018-04-10T03:40:50.713Z,99.90
2018-04-10T03:43:19.943Z,99.90
2018-04-10T03:45:48.362Z,99.90
2018-04-10T03:48:16.744Z,99.90
2018-04-10T03:50:45.315Z,99.90
2018-04-10T03:53:13.834Z,99.90
2018-04-10T03:55:42.343Z,99.90
2018-04-10T03:58:10.824Z,99.90
2018-04-10T04:00:40.010Z,99.90
2018-04-10T04:03:09.793Z,99.90
2018-04-10T04:05:38.351Z,99.90
2018-04-10T04:08:08.164Z,99.90
2018-04-10T04:10:36.726Z,99.90
2018-04-10T04:13:05.117Z,99.90
2018-04-10T04:15:33.596Z,99.90
2018-04-10T04:18:02.736Z,99.90
2018-04-10T04:20:43.181Z,99.90
2018-04-10T04:23:16.925Z,99.90
2018-04-10T04:25:47.835Z,99.90
2018-04-10T04:28:16.223Z,99.90
2018-04-10T04:30:44.758Z,99.90
2018-04-10T04:33:14.081Z,99.90
2018-04-10T04:35:42.499Z,99.90
2018-04-10T04:38:10.986Z,99.90
2018-04-10T04:40:39.426Z,99.90
2018-04-10T04:43:07.811Z,99.90
2018-04-10T04:45:36.222Z,99.90
2018-04-10T04:48:10.728Z,99.90
2018-04-10T04:50:45.178Z,99.90
2018-04-10T04:53:13.553Z,99.90
2018-04-10T04:55:41.967Z,99.90
2018-04-10T04:58:10.439Z,99.90
2018-04-10T05:00:38.782Z,99.90
2018-04-10T05:03:07.202Z,99.90
2018-04-10T05:05:35.598Z,99.90
2018-04-10T05:08:05.309Z,99.90
2018-04-10T05:10:33.783Z,99.90
2018-04-10T05:13:02.227Z,99.90
2018-04-10T05:15:30.579Z,99.90
2018-04-10T05:17:59.155Z,99.90
2018-04-10T05:20:28.321Z,99.90
2018-04-10T05:22:56.832Z,99.90
2018-04-10T05:25:25.999Z,99.90
2018-04-10T05:27:54.395Z,99.90
2018-04-10T05:30:22.771Z,99.90
2018-04-10T05:32:51.170Z,99.90
2018-04-10T05:35:24.847Z,99.90
2018-04-10T05:37:57.855Z,99.90
2018-04-10T05:40:26.344Z,99.90
2018-04-10T05:42:54.730Z,99.90
2018-04-10T05:45:24.006Z,99.90
2018-04-10T05:47:52.433Z,99.90
2018-04-10T05:50:20.827Z,99.90
2018-04-10T05:52:49.376Z,99.90
2018-04-10T05:55:17.756Z,99.90
2018-04-10T05:57:46.147Z,99.90
2018-04-10T06:00:19.808Z,99.90
2018-04-10T06:02:50.739Z,99.90
2018-04-10T06:05:19.193Z,99.90
2018-04-10T06:07:47.619Z,99.90
2018-04-10T06:10:16.002Z,99.90
2018-04-10T06:12:44.424Z,99.90
2018-04-10T06:15:12.848Z,99.90
2018-04-10T06:17:41.439Z,99.90
2018-04-10T06:20:10.648Z,99.90
2018-04-10T06:22:41.751Z,99.90
2018-04-10T06:25:13.858Z,99.90
2018-04-10T06:27:50.256Z,99.90
2018-04-10T06:30:18.716Z,99.90
2018-04-10T06:32:47.903Z,99.90
2018-04-10T06:35:16.321Z,99.90
2018-04-10T06:37:44.771Z,99.90
2018-04-10T06:40:14.051Z,99.90
2018-04-10T06:42:46.303Z,99.90
2018-04-10T06:45:19.197Z,99.90
2018-04-10T06:47:47.586Z,99.90
2018-04-10T06:50:16.043Z,99.90
2018-04-10T06:52:44.491Z,99.90
2018-04-10T06:55:13.657Z,99.90
2018-04-10T06:57:42.058Z,99.90
2018-04-10T07:00:10.486Z,99.90
2018-04-10T07:02:39.032Z,99.90
2018-04-10T07:05:07.540Z,99.90
2018-04-10T07:07:35.945Z,99.90
2018-04-10T07:10:05.478Z,99.90
2018-04-10T07:12:34.672Z,99.90
2018-04-10T07:15:03.858Z,99.90
2018-04-10T07:17:43.812Z,99.90
2018-04-10T07:20:12.511Z,99.90
2018-04-10T07:22:40.931Z,99.90
2018-04-10T07:25:09.627Z,99.90
2018-04-10T07:27:42.375Z,99.90
2018-04-10T07:30:10.790Z,99.90
2018-04-10T07:32:39.190Z,99.90
2018-04-10T07:35:08.376Z,99.90
2018-04-10T07:37:38.748Z,99.90
2018-04-10T07:40:07.237Z,99.90
2018-04-10T07:42:36.450Z,99.90
2018-04-10T07:45:04.947Z,99.90
2018-04-10T07:47:33.547Z,99.90
2018-04-10T07:50:14.075Z,99.90
2018-04-10T07:52:43.411Z,99.90
2018-04-10T07:55:11.844Z,99.90
2018-04-10T07:57:40.317Z,99.90
2018-04-10T08:00:08.724Z,99.90
2018-04-10T08:02:37.107Z,99.90
2018-04-10T08:05:05.489Z,99.90
2018-04-10T08:07:33.903Z,99.90
2018-04-10T08:10:02.430Z,99.90
2018-04-10T08:12:30.895Z,99.90
2018-04-10T08:14:59.299Z,99.90
2018-04-10T08:17:27.903Z,99.90
2018-04-10T08:19:56.302Z,99.90
2018-04-10T08:22:24.792Z,99.90
2018-04-10T08:24:58.654Z,99.90
2018-04-10T08:27:32.504Z,99.90
2018-04-10T08:30:04.287Z,99.90
2018-04-10T08:32:33.452Z,99.90
2018-04-10T08:35:01.894Z,99.90
2018-04-10T08:37:30.322Z,99.90
2018-04-10T08:39:58.687Z,99.90
2018-04-10T08:42:27.108Z,99.90
2018-04-10T08:44:56.296Z,99.90
2018-04-10T08:47:24.674Z,99.90
2018-04-10T08:49:53.109Z,99.90
2018-04-10T08:52:26.843Z,99.90
2018-04-10T08:54:56.041Z,99.90
2018-04-10T08:57:24.606Z,99.90
2018-04-10T08:59:53.051Z,99.90
2018-04-10T09:02:21.602Z,99.90
2018-04-10T09:04:50.023Z,99.90
2018-04-10T09:07:18.430Z,99.90
2018-04-10T09:09:47.595Z,99.90
2018-04-10T09:12:15.964Z,99.90
2018-04-10T09:14:44.492Z,99.90
2018-04-10T09:17:12.917Z,99.90
2018-04-10T09:19:41.283Z,99.90
2018-04-10T09:22:11.161Z,99.90
2018-04-10T09:24:39.591Z,99.90
2018-04-10T09:27:07.977Z,99.90
2018-04-10T09:29:37.106Z,99.90
2018-04-10T09:32:05.503Z,99.90
2018-04-10T09:34:33.883Z,99.90
2018-04-10T09:37:02.373Z,99.90
2018-04-10T09:39:36.106Z,99.90
2018-04-10T09:42:05.207Z,99.90
2018-04-10T09:44:34.301Z,99.90
2018-04-10T09:47:02.671Z,99.90
2018-04-10T09:49:31.142Z,99.90
2018-04-10T09:52:00.364Z,99.90
2018-04-10T09:54:30.263Z,99.90
2018-04-10T09:56:58.858Z,99.90
2018-04-10T09:59:27.357Z,99.90
2018-04-10T10:01:55.835Z,99.90
2018-04-10T10:04:26.494Z,99.90
2018-04-10T10:06:55.307Z,99.90
2018-04-10T10:09:24.467Z,99.90
2018-04-10T10:11:52.874Z,99.90
2018-04-10T10:14:29.240Z,99.90
2018-04-10T10:16:57.803Z,99.90
2018-04-10T10:19:27.212Z,99.90
2018-04-10T10:21:55.787Z,99.90
2018-04-10T10:24:24.988Z,99.90
2018-04-10T10:26:53.483Z,99.90
2018-04-10T10:29:21.845Z,99.90
2018-04-10T10:31:50.243Z,99.90
2018-04-10T10:34:18.665Z,99.90
2018-04-10T10:36:47.143Z,99.90
2018-04-10T10:39:15.538Z,99.90
2018-04-10T10:41:43.959Z,99.90
2018-04-10T10:44:12.368Z,99.90
2018-04-10T10:46:40.833Z,99.90
2018-04-10T10:49:09.261Z,99.90
2018-04-10T10:51:38.484Z,99.90
2018-04-10T10:54:07.627Z,99.90
2018-04-10T10:56:36.027Z,99.90
2018-04-10T10:59:04.412Z,99.90
2018-04-10T11:01:32.827Z,99.90
2018-04-10T11:04:01.333Z,99.90
2018-04-10T11:06:29.846Z,99.90
2018-04-10T11:09:00.527Z,99.90
2018-04-10T11:11:28.892Z,99.90
2018-04-10T11:13:57.377Z,99.90
2018-04-10T11:16:25.986Z,99.90
2018-04-10T11:18:54.482Z,99.90
2018-04-10T11:21:23.024Z,99.90
2018-04-10T11:23:51.652Z,99.90
2018-04-10T11:26:20.060Z,99.90
2018-04-10T11:28:48.723Z,99.90
2018-04-10T11:31:23.429Z,99.90
2018-04-10T11:33:51.888Z,99.90
2018-04-10T11:36:22.124Z,99.90
2018-04-10T11:38:50.495Z,99.90
2018-04-10T11:41:37.049Z,99.90
2018-04-10T11:44:06.233Z,99.90
2018-04-10T11:46:34.634Z,99.90
2018-04-10T11:49:03.003Z,99.90
2018-04-10T11:51:32.740Z,99.90
2018-04-10T11:54:01.442Z,99.90
2018-04-10T11:56:30.607Z,99.90
2018-04-10T11:58:59.801Z,99.90
2018-04-10T12:01:28.236Z,99.90
2018-04-10T12:03:56.665Z,99.00
2018-04-10T12:06:25.069Z,97.50
2018-04-10T12:08:55.232Z,96.30
2018-04-10T12:11:29.374Z,96.30
2018-04-10T12:14:01.190Z,96.00
2018-04-10T12:16:29.651Z,96.10
2018-04-10T12:18:58.799Z,95.60
2018-04-10T12:24:22.110Z,95.00
2018-04-10T12:26:51.419Z,93.70
2018-04-10T12:29:19.816Z,93.70
2018-04-10T12:31:48.264Z,94.30
2018-04-10T12:34:22.105Z,93.60
2018-04-10T12:36:51.321Z,94.40
2018-04-10T12:39:19.793Z,94.50
2018-04-10T12:41:48.171Z,93.80
2018-04-10T12:44:16.763Z,94.40
2018-04-10T12:46:45.171Z,95.00
2018-04-10T12:49:13.588Z,95.20
2018-04-10T12:51:42.048Z,95.50
2018-04-10T12:54:10.804Z,94.00
2018-04-10T12:56:39.531Z,92.80
2018-04-10T12:59:07.939Z,92.50
2018-04-10T13:01:37.287Z,92.00
2018-04-10T13:04:05.756Z,92.00
2018-04-10T13:06:35.640Z,92.60
2018-04-10T13:09:05.821Z,92.30
2018-04-10T13:11:34.272Z,92.30
2018-04-10T13:14:02.689Z,91.80
2018-04-10T13:16:31.159Z,91.70
2018-04-10T13:19:06.422Z,90.30
2018-04-10T13:21:35.752Z,91.00
2018-04-10T13:24:04.341Z,91.00
2018-04-10T13:26:32.816Z,91.30
2018-04-10T13:29:01.417Z,91.40
2018-04-10T13:31:29.837Z,90.70
2018-04-10T13:33:59.176Z,91.20
2018-04-10T13:36:28.625Z,91.20
2018-04-10T13:38:57.040Z,90.50
2018-04-10T13:41:25.587Z,90.90
2018-04-10T13:43:54.167Z,88.80
2018-04-10T13:46:22.555Z,89.20
2018-04-10T13:48:51.035Z,90.70
2018-04-10T13:51:19.446Z,89.60
2018-04-10T13:53:47.909Z,89.60
2018-04-10T13:56:16.340Z,87.40
2018-04-10T13:58:44.721Z,88.90
2018-04-10T14:01:13.983Z,89.40
2018-04-10T14:03:43.907Z,89.40
2018-04-10T14:06:12.479Z,89.50
2018-04-10T14:08:40.868Z,88.70
2018-04-10T14:11:09.387Z,87.50
2018-04-10T14:13:38.516Z,82.20
2018-04-10T14:16:07.043Z,82.40
2018-04-10T14:18:35.435Z,85.60
2018-04-10T14:21:04.487Z,86.40
2018-04-10T14:23:33.706Z,82.30
2018-04-10T14:26:07.562Z,82.20
2018-04-10T14:28:36.683Z,88.40
2018-04-10T14:31:05.926Z,86.10
2018-04-10T14:33:34.299Z,86.10
2018-04-10T14:36:02.767Z,83.80
2018-04-10T14:38:31.471Z,82.70
2018-04-10T14:41:01.686Z,84.80
2018-04-10T14:43:30.163Z,84.70
2018-04-10T14:46:04.442Z,78.10
2018-04-10T14:48:39.436Z,79.90
2018-04-10T14:51:10.539Z,78.90
2018-04-10T14:53:39.787Z,78.90
2018-04-10T14:56:11.808Z,78.60
2018-04-10T14:58:49.635Z,77.40
2018-04-10T15:01:18.061Z,73.10
2018-04-10T15:03:46.431Z,71.10
2018-04-10T15:06:15.617Z,70.80
2018-04-10T15:08:45.246Z,75.70
2018-04-10T15:11:16.311Z,75.60
2018-04-10T15:13:44.818Z,67.80
2018-04-10T15:16:13.225Z,72.30
2018-04-10T15:18:42.504Z,66.40
2018-04-10T15:21:10.950Z,66.40
2018-04-10T15:23:39.374Z,67.50
2018-04-10T15:26:09.242Z,64.30
2018-04-10T15:28:37.768Z,64.40
2018-04-10T15:31:06.156Z,63.00
2018-04-10T15:33:35.295Z,62.40
2018-04-10T15:36:03.885Z,62.30
2018-04-10T15:38:32.357Z,64.80
2018-04-10T15:41:00.785Z,62.60
2018-04-10T15:43:29.984Z,54.30
2018-04-10T15:45:58.413Z,54.20
2018-04-10T15:48:27.436Z,51.00
2018-04-10T15:50:56.639Z,53.70
2018-04-10T15:53:25.863Z,53.00
2018-04-10T15:55:59.845Z,53.00
2018-04-10T15:58:28.291Z,50.60
2018-04-10T16:00:56.856Z,47.90
2018-04-10T16:03:26.044Z,44.10
2018-04-10T16:05:54.437Z,44.10
2018-04-10T16:08:22.851Z,42.30
2018-04-10T16:10:52.359Z,41.10
2018-04-10T16:13:20.795Z,40.60
2018-04-10T16:15:49.314Z,40.00
2018-04-10T16:18:19.271Z,40.50
2018-04-10T16:20:48.562Z,40.00
2018-04-10T16:23:16.962Z,40.50
2018-04-10T16:25:45.375Z,40.50
2018-04-10T16:28:13.770Z,42.10
2018-04-10T16:30:42.168Z,44.70
2018-04-10T16:33:10.635Z,46.40
2018-04-10T16:35:39.056Z,47.60
2018-04-10T16:38:07.594Z,46.30
2018-04-10T16:40:40.539Z,46.60
2018-04-10T16:43:09.013Z,47.20
2018-04-10T16:45:38.051Z,45.60
2018-04-10T16:48:07.190Z,45.30
2018-04-10T16:50:35.600Z,45.40
2018-04-10T16:53:03.983Z,47.20
2018-04-10T16:55:32.520Z,46.10
2018-04-10T16:58:00.885Z,46.20
2018-04-10T17:00:29.347Z,49.80
2018-04-10T17:02:59.983Z,45.50
2018-04-10T17:05:28.360Z,45.60
2018-04-10T17:07:57.632Z,45.60
2018-04-10T17:10:26.073Z,45.50
2018-04-10T17:12:54.502Z,45.90
2018-04-10T17:15:23.023Z,44.60
2018-04-10T17:17:51.464Z,49.70
2018-04-10T17:20:19.891Z,48.00
2018-04-10T17:22:49.095Z,49.20
2018-04-10T17:25:18.292Z,49.60
2018-04-10T17:27:46.761Z,49.60
2018-04-10T17:30:15.165Z,50.80
2018-04-10T17:32:44.321Z,50.10
2018-04-10T17:35:13.310Z,50.10
2018-04-10T17:37:41.807Z,50.10
2018-04-10T17:40:10.235Z,52.70
2018-04-10T17:42:38.783Z,49.10
2018-04-10T17:45:08.128Z,49.40
2018-04-10T17:47:41.795Z,49.50
2018-04-10T17:50:15.650Z,50.10
2018-04-10T17:52:49.451Z,49.00
2018-04-10T17:55:18.661Z,50.30
2018-04-10T17:57:48.090Z,51.50
2018-04-10T18:00:17.333Z,52.10
2018-04-10T18:02:45.717Z,51.90
2018-04-10T18:05:14.111Z,54.70
2018-04-10T18:07:43.299Z,54.70
2018-04-10T18:10:12.538Z,56.50
2018-04-10T18:12:40.949Z,55.70
2018-04-10T18:15:12.789Z,57.30
2018-04-10T18:17:41.546Z,58.80
2018-04-10T18:20:09.952Z,59.40
2018-04-10T18:22:38.427Z,62.40
2018-04-10T18:25:06.891Z,62.60
2018-04-10T18:27:35.295Z,65.50
2018-04-10T18:30:04.395Z,67.30
2018-04-10T18:32:32.858Z,69.30
2018-04-10T18:35:01.473Z,71.40
2018-04-10T18:37:35.415Z,72.00
2018-04-10T18:40:03.987Z,73.10
2018-04-10T18:42:32.562Z,74.90
2018-04-10T18:45:01.164Z,73.80
2018-04-10T18:47:29.623Z,76.40
2018-04-10T18:49:58.080Z,78.10
2018-04-10T18:52:27.307Z,78.80
2018-04-10T18:54:55.718Z,78.90
2018-04-10T18:57:24.209Z,81.70
2018-04-10T18:59:54.102Z,82.40
2018-04-10T19:02:22.672Z,83.60
2018-04-10T19:04:51.083Z,84.50
2018-04-10T19:07:19.555Z,85.50
2018-04-10T19:09:48.124Z,84.90
2018-04-10T19:12:16.562Z,85.80
2018-04-10T19:14:46.649Z,87.50
2018-04-10T19:17:15.044Z,87.50
2018-04-10T19:19:43.582Z,87.40
2018-04-10T19:22:17.334Z,88.80
2018-04-10T19:24:45.803Z,89.00
2018-04-10T19:27:14.364Z,89.60
2018-04-10T19:29:42.773Z,89.50
2018-04-10T19:32:11.175Z,90.10
2018-04-10T19:34:47.089Z,90.20
2018-04-10T19:37:16.372Z,90.80
2018-04-10T19:39:44.802Z,90.70
2018-04-10T19:42:14.332Z,91.00
2018-04-10T19:44:42.809Z,91.00
2018-04-10T19:47:11.482Z,91.00
2018-04-10T19:49:39.890Z,91.00
2018-04-10T19:52:08.272Z,91.30
2018-04-10T19:54:37.501Z,92.00
2018-04-10T19:57:05.951Z,92.00
2018-04-10T19:59:35.123Z,92.10
2018-04-10T20:02:03.498Z,92.10
2018-04-10T20:04:35.425Z,92.20
2018-04-10T20:07:03.906Z,92.30
2018-04-10T20:09:32.307Z,92.50
2018-04-10T20:12:00.867Z,92.40
2018-04-10T20:14:29.243Z,92.60
2018-04-10T20:16:57.626Z,92.70
2018-04-10T20:19:26.019Z,93.20
2018-04-10T20:21:55.230Z,93.20
2018-04-10T20:24:23.697Z,93.50
2018-04-10T20:26:59.281Z,94.10
2018-04-10T20:29:27.701Z,94.10
2018-04-10T20:31:56.054Z,94.00
2018-04-10T20:34:36.133Z,94.50
2018-04-10T20:37:04.594Z,94.50
2018-04-10T20:39:32.976Z,94.60
2018-04-10T20:42:01.410Z,95.00
2018-04-10T20:44:29.874Z,95.50
2018-04-10T20:46:58.278Z,96.00
2018-04-10T20:49:32.214Z,96.30
2018-04-10T20:52:00.683Z,96.40
2018-04-10T20:54:29.065Z,96.80
2018-04-10T20:56:57.473Z,97.20
2018-04-10T20:59:25.923Z,97.50
2018-04-10T21:01:54.406Z,97.80
2018-04-10T21:04:23.743Z,98.70
2018-04-10T21:06:52.103Z,98.30
2018-04-10T21:09:21.236Z,98.60
2018-04-10T21:11:49.628Z,98.60
2018-04-10T21:14:18.177Z,99.10
2018-04-10T21:16:47.462Z,99.70
2018-04-10T21:19:16.691Z,99.80
2018-04-10T21:21:45.082Z,99.80
2018-04-10T21:24:13.475Z,99.90
2018-04-10T21:26:41.847Z,99.90
2018-04-10T21:29:10.221Z,99.90
2018-04-10T21:31:39.469Z,99.90
2018-04-10T21:34:16.278Z,99.90
2018-04-10T21:36:44.750Z,99.90
2018-04-10T21:39:13.111Z,99.90
2018-04-10T21:41:41.520Z,99.90
2018-04-10T21:44:10.675Z,99.90
2018-04-10T21:46:39.235Z,99.90
2018-04-10T21:49:07.630Z,99.90
2018-04-10T21:51:35.998Z,99.90
2018-04-10T21:54:05.380Z,99.90
2018-04-10T21:56:33.926Z,99.90
2018-04-10T21:59:06.614Z,99.90
2018-04-10T22:01:34.976Z,99.90
2018-04-10T22:04:03.528Z,99.90
2018-04-10T22:06:31.943Z,99.90
2018-04-10T22:09:00.382Z,99.90
2018-04-10T22:11:28.785Z,99.90
2018-04-10T22:13:57.356Z,99.90
2018-04-10T22:16:25.822Z,99.90
2018-04-10T22:18:55.031Z,99.90
2018-04-10T22:21:23.508Z,99.90
2018-04-10T22:23:52.356Z,99.90
2018-04-10T22:26:20.732Z,99.90
2018-04-10T22:28:50.056Z,99.90
2018-04-10T22:31:18.438Z,99.90
2018-04-10T22:33:47.633Z,99.90
2018-04-10T22:36:16.016Z,99.90
2018-04-10T22:38:44.435Z,99.90
2018-04-10T22:41:12.989Z,99.90
2018-04-10T22:43:41.408Z,99.90
2018-04-10T22:46:09.831Z,99.90
2018-04-10T22:48:39.048Z,99.90
2018-04-10T22:51:07.427Z,99.90
2018-04-10T22:53:36.022Z,99.90
2018-04-10T22:56:04.499Z,99.90
2018-04-10T22:58:32.934Z,99.90
2018-04-10T23:01:04.789Z,99.90
2018-04-10T23:03:33.225Z,99.90
2018-04-10T23:06:01.665Z,99.90
2018-04-10T23:08:30.221Z,99.90
2018-04-10T23:10:58.695Z,99.90
2018-04-10T23:13:27.071Z,99.90
2018-04-10T23:15:55.527Z,99.90
2018-04-10T23:18:23.911Z,99.90
2018-04-10T23:20:52.374Z,99.90
2018-04-10T23:23:23.146Z,99.90
2018-04-10T23:25:53.163Z,99.90
2018-04-10T23:28:21.575Z,99.90
2018-04-10T23:30:49.959Z,99.90
2018-04-10T23:33:19.268Z,99.90
2018-04-10T23:35:47.712Z,99.90
2018-04-10T23:38:16.071Z,99.90
2018-04-10T23:40:44.444Z,99.90
2018-04-10T23:43:12.887Z,99.90
2018-04-10T23:45:46.676Z,99.90
2018-04-10T23:48:15.473Z,99.90
2018-04-10T23:50:43.847Z,99.90
2018-04-10T23:53:12.254Z,99.90
2018-04-10T23:55:40.652Z,99.90
2018-04-10T23:58:09.196Z,99.90
